Time;durP1;ratioP1;P1;durP2;ratioP2;P2;SDS_P1;SDS_P2;PMS_P1;PMS_P2;Temp;Humidity;BMP_temperature;BMP_pressure;BME280_temperature;BME280_humidity;BME280_pressure;Samples;Min_cycle;Max_cycle;Signal;HPM_P1;HPM_P2
2022/04/14 00:01:45;;;;;;;3.60;2.70;;;15.00;56.80;;;;;;911218;157;27323;-72
2022/04/14 00:04:11;;;;;;;4.63;2.80;;;15.00;56.90;;;;;;916231;155;27467;-73
2022/04/14 00:06:38;;;;;;;8.40;3.00;;;14.90;57.10;;;;;;893828;157;27526;-73
2022/04/14 00:09:04;;;;;;;3.87;3.07;;;14.90;57.40;;;;;;901636;157;27445;-73
2022/04/14 00:11:31;;;;;;;3.07;2.50;;;14.80;57.50;;;;;;902441;157;27316;-73
2022/04/14 00:13:58;;;;;;;2.97;2.67;;;14.80;57.40;;;;;;895284;157;27512;-73
2022/04/14 00:16:24;;;;;;;2.57;2.07;;;14.70;57.40;;;;;;891012;158;27498;-74
2022/04/14 00:18:51;;;;;;;3.00;2.70;;;14.70;57.60;;;;;;906353;157;27416;-73
2022/04/14 00:21:17;;;;;;;3.03;2.70;;;14.60;57.70;;;;;;899713;157;27535;-73
2022/04/14 00:23:44;;;;;;;3.80;2.57;;;14.60;57.80;;;;;;883600;159;27416;-73
2022/04/14 00:26:10;;;;;;;3.10;2.80;;;14.60;58.00;;;;;;900030;155;27402;-73
2022/04/14 00:28:37;;;;;;;4.30;2.77;;;14.60;58.20;;;;;;885956;159;27850;-73
2022/04/14 00:31:04;;;;;;;3.43;2.43;;;14.50;58.40;;;;;;896992;158;27506;-73
2022/04/14 00:33:30;;;;;;;3.43;2.70;;;14.50;58.50;;;;;;901040;157;27354;-73
2022/04/14 00:35:57;;;;;;;8.07;3.07;;;14.40;58.40;;;;;;898819;157;28035;-73
2022/04/14 00:38:23;;;;;;;3.83;2.93;;;14.40;58.60;;;;;;903486;157;27354;-73
2022/04/14 00:40:52;;;;;;;3.83;3.00;;;14.40;58.80;;;;;;902346;157;27393;-73
2022/04/14 00:43:17;;;;;;;4.30;2.70;;;14.30;58.90;;;;;;900095;157;27394;-73
2022/04/14 00:45:43;;;;;;;4.80;2.80;;;14.30;58.90;;;;;;888496;160;27496;-73
2022/04/14 00:48:10;;;;;;;4.40;2.80;;;14.30;58.90;;;;;;895256;160;27480;-73
2022/04/14 00:50:36;;;;;;;5.83;3.60;;;14.30;59.00;;;;;;902267;156;27338;-74
2022/04/14 00:53:03;;;;;;;2.97;2.73;;;14.20;59.30;;;;;;896288;159;27403;-73
2022/04/14 00:55:30;;;;;;;5.13;3.00;;;14.20;59.40;;;;;;905021;156;27447;-73
2022/04/14 00:57:56;;;;;;;3.90;3.10;;;14.20;59.50;;;;;;907695;157;27980;-73
2022/04/14 01:00:23;;;;;;;5.30;3.20;;;14.20;59.30;;;;;;899457;156;27390;-73
2022/04/14 01:02:49;;;;;;;11.40;3.70;;;14.20;59.70;;;;;;902970;157;27548;-74
2022/04/14 01:05:16;;;;;;;5.87;3.90;;;14.10;60.00;;;;;;904276;157;27500;-73
2022/04/14 01:07:45;;;;;;;5.57;4.37;;;14.10;60.50;;;;;;892719;157;27307;-74
2022/04/14 01:10:09;;;;;;;8.77;4.40;;;14.20;61.10;;;;;;906091;156;27480;-73
2022/04/14 01:12:36;;;;;;;7.73;4.00;;;14.20;61.30;;;;;;885484;159;27418;-73
2022/04/14 01:15:02;;;;;;;6.23;4.77;;;14.20;61.80;;;;;;899818;157;27361;-73
2022/04/14 01:17:29;;;;;;;5.43;4.77;;;14.30;61.90;;;;;;898701;157;27430;-73
2022/04/14 01:19:55;;;;;;;6.00;4.60;;;14.30;62.50;;;;;;896521;157;27438;-73
2022/04/14 01:22:25;;;;;;;6.07;4.80;;;14.40;62.90;;;;;;909077;156;27376;-73
2022/04/14 01:24:55;;;;;;;7.70;5.03;;;14.40;62.70;;;;;;891649;158;27717;-74
2022/04/14 01:27:21;;;;;;;5.07;4.53;;;14.60;63.00;;;;;;900242;157;27479;-73
2022/04/14 01:29:51;;;;;;;6.63;4.97;;;14.60;63.20;;;;;;891292;159;27361;-73
2022/04/14 01:32:15;;;;;;;10.37;5.30;;;14.70;63.50;;;;;;903350;156;27281;-73
2022/04/14 01:34:41;;;;;;;8.07;5.03;;;14.80;63.50;;;;;;916153;155;27500;-73
2022/04/14 01:37:07;;;;;;;6.47;4.67;;;14.90;63.90;;;;;;901463;157;27922;-74
2022/04/14 01:39:34;;;;;;;6.07;5.00;;;15.00;64.30;;;;;;902563;156;27334;-73
2022/04/14 01:42:00;;;;;;;5.90;5.30;;;15.00;63.00;;;;;;897023;157;27422;-74
2022/04/14 01:44:27;;;;;;;6.70;5.00;;;15.20;64.10;;;;;;903441;157;27402;-73
2022/04/14 01:46:54;;;;;;;10.87;4.80;;;15.20;63.90;;;;;;902871;155;27427;-73
2022/04/14 01:49:20;;;;;;;5.70;5.17;;;15.30;64.00;;;;;;908563;155;27298;-73
2022/04/14 01:51:49;;;;;;;5.30;4.80;;;15.40;64.10;;;;;;905674;158;27429;-73
2022/04/14 01:54:13;;;;;;;7.23;5.03;;;15.40;64.30;;;;;;905835;157;27381;-73
2022/04/14 01:56:41;;;;;;;6.97;5.50;;;15.50;64.20;;;;;;899869;156;27452;-73
2022/04/14 01:59:06;;;;;;;7.60;5.10;;;15.60;64.30;;;;;;907358;157;27463;-73
2022/04/14 02:01:33;;;;;;;6.10;5.13;;;15.60;64.30;;;;;;909260;157;27433;-73
2022/04/14 02:04:02;;;;;;;6.30;5.60;;;15.70;64.60;;;;;;897551;158;27424;-73
2022/04/14 02:06:26;;;;;;;6.00;5.40;;;15.80;64.30;;;;;;897582;157;27317;-73
2022/04/14 02:08:53;;;;;;;7.60;5.60;;;15.80;64.50;;;;;;901827;157;27361;-73
2022/04/14 02:11:19;;;;;;;8.77;6.47;;;15.80;64.50;;;;;;898127;159;27441;-74
2022/04/14 02:13:46;;;;;;;7.03;5.73;;;15.90;64.60;;;;;;895839;157;27270;-73
2022/04/14 02:16:13;;;;;;;6.37;5.40;;;15.90;64.60;;;;;;892371;159;27382;-73
2022/04/14 02:18:39;;;;;;;7.47;5.80;;;16.00;64.70;;;;;;897706;157;27317;-73
2022/04/14 02:21:06;;;;;;;8.27;6.33;;;16.00;64.60;;;;;;899263;157;27339;-73
2022/04/14 02:23:32;;;;;;;7.20;6.10;;;16.10;65.00;;;;;;910121;157;27345;-73
2022/04/14 02:25:59;;;;;;;7.73;6.27;;;16.10;65.00;;;;;;901765;157;27390;-73
2022/04/14 02:28:26;;;;;;;7.23;6.53;;;16.20;65.10;;;;;;905545;157;27390;-73
2022/04/14 02:30:52;;;;;;;7.57;6.40;;;16.20;65.00;;;;;;900928;156;27383;-73
2022/04/14 02:33:19;;;;;;;7.73;6.93;;;16.20;65.10;;;;;;893735;157;27410;-74
2022/04/14 02:35:46;;;;;;;8.67;6.93;;;16.30;65.20;;;;;;900412;157;27298;-73
2022/04/14 02:38:12;;;;;;;8.47;6.53;;;16.30;65.30;;;;;;904726;157;27312;-73
2022/04/14 02:40:38;;;;;;;7.87;7.07;;;16.30;66.10;;;;;;896755;155;27356;-73
2022/04/14 02:43:05;;;;;;;7.33;6.43;;;16.40;65.60;;;;;;896656;157;27454;-73
2022/04/14 02:45:32;;;;;;;8.27;7.40;;;16.40;66.20;;;;;;902389;157;27400;-73
2022/04/14 02:47:58;;;;;;;9.13;6.90;;;16.40;65.70;;;;;;901173;157;27305;-73
2022/04/14 02:50:25;;;;;;;10.77;7.10;;;16.40;65.60;;;;;;915771;157;27361;-74
2022/04/14 02:52:51;;;;;;;7.87;7.17;;;16.40;65.70;;;;;;902177;156;27289;-74
2022/04/14 02:55:19;;;;;;;9.27;7.50;;;16.40;65.50;;;;;;905541;156;27295;-74
2022/04/14 02:57:45;;;;;;;8.33;7.50;;;16.40;65.70;;;;;;898080;156;27472;-75
2022/04/14 03:00:11;;;;;;;7.93;6.90;;;16.40;65.80;;;;;;900383;156;27407;-75
2022/04/14 03:02:38;;;;;;;8.87;6.70;;;16.40;65.80;;;;;;897950;160;27469;-75
2022/04/14 03:05:04;;;;;;;7.20;6.43;;;16.40;65.80;;;;;;890390;160;27248;-75
2022/04/14 03:07:31;;;;;;;7.50;6.57;;;16.40;65.80;;;;;;888546;161;27429;-75
2022/04/14 03:09:58;;;;;;;8.57;7.40;;;16.40;65.90;;;;;;899671;158;27474;-75
2022/04/14 03:12:24;;;;;;;9.43;7.63;;;16.40;66.00;;;;;;890228;158;27383;-75
2022/04/14 03:14:51;;;;;;;9.00;6.90;;;16.40;66.10;;;;;;894520;158;27418;-75
2022/04/14 03:17:17;;;;;;;8.23;7.43;;;16.30;66.10;;;;;;884813;158;27316;-75
2022/04/14 03:19:44;;;;;;;8.63;7.87;;;16.30;66.20;;;;;;893928;158;27385;-75
2022/04/14 03:22:10;;;;;;;11.93;7.73;;;16.30;66.40;;;;;;887068;158;27448;-75
2022/04/14 03:24:37;;;;;;;8.63;7.73;;;16.30;67.40;;;;;;896664;158;27805;-75
2022/04/14 03:27:04;;;;;;;9.93;7.90;;;16.20;66.70;;;;;;897652;158;27401;-75
2022/04/14 03:29:32;;;;;;;8.13;7.23;;;16.20;66.80;;;;;;887016;161;27437;-75
2022/04/14 03:31:57;;;;;;;8.87;7.97;;;16.20;66.90;;;;;;887996;160;27319;-75
2022/04/14 03:34:23;;;;;;;9.93;8.80;;;16.20;67.00;;;;;;891162;158;27408;-75
2022/04/14 03:36:50;;;;;;;8.17;7.37;;;16.10;67.00;;;;;;889508;161;27312;-75
2022/04/14 03:39:17;;;;;;;8.77;7.87;;;16.10;67.10;;;;;;881669;158;27427;-75
2022/04/14 03:41:43;;;;;;;7.80;7.00;;;16.10;67.20;;;;;;890076;158;27409;-75
2022/04/14 03:44:10;;;;;;;9.10;7.67;;;16.10;67.30;;;;;;892845;158;27363;-75
2022/04/14 03:46:36;;;;;;;8.37;7.57;;;16.00;67.40;;;;;;888240;161;27830;-75
2022/04/14 03:49:03;;;;;;;10.00;8.17;;;16.00;67.50;;;;;;889421;158;27701;-75
2022/04/14 03:51:29;;;;;;;8.33;7.30;;;16.00;67.60;;;;;;885609;161;27437;-74
2022/04/14 03:53:56;;;;;;;8.97;8.07;;;16.00;67.90;;;;;;891291;158;27328;-75
2022/04/14 03:56:23;;;;;;;8.97;7.30;;;16.00;67.80;;;;;;892327;160;27767;-75
2022/04/14 03:58:49;;;;;;;9.87;8.00;;;15.90;67.80;;;;;;887233;161;27429;-75
2022/04/14 04:01:16;;;;;;;7.90;7.30;;;15.90;67.90;;;;;;892301;157;27534;-75
2022/04/14 04:03:42;;;;;;;9.37;8.47;;;15.90;68.20;;;;;;899706;157;27276;-75
2022/04/14 04:06:09;;;;;;;8.93;7.93;;;15.90;68.30;;;;;;888551;157;27415;-75
2022/04/14 04:08:36;;;;;;;10.17;8.83;;;15.80;68.30;;;;;;898021;160;27525;-75
2022/04/14 04:11:02;;;;;;;11.90;8.67;;;15.80;68.50;;;;;;904970;157;27349;-75
2022/04/14 04:13:29;;;;;;;9.73;8.73;;;15.80;68.70;;;;;;902573;157;27433;-75
2022/04/14 04:15:55;;;;;;;8.43;7.53;;;15.70;68.60;;;;;;889550;157;27415;-75
2022/04/14 04:18:22;;;;;;;10.00;9.00;;;15.70;68.70;;;;;;896647;157;28143;-75
2022/04/14 04:20:49;;;;;;;9.23;8.17;;;15.70;68.40;;;;;;900328;157;27273;-75
2022/04/14 04:23:15;;;;;;;9.77;8.77;;;15.70;69.20;;;;;;886104;159;27529;-75
2022/04/14 04:25:42;;;;;;;10.83;8.97;;;15.60;69.40;;;;;;897558;160;27786;-75
2022/04/14 04:28:08;;;;;;;9.83;8.87;;;15.60;69.50;;;;;;898181;157;27380;-75
2022/04/14 04:30:35;;;;;;;10.50;8.13;;;15.60;69.50;;;;;;893447;157;27504;-75
2022/04/14 04:33:01;;;;;;;11.33;9.30;;;15.60;69.80;;;;;;883310;157;27439;-75
2022/04/14 04:35:28;;;;;;;11.70;9.23;;;15.60;69.80;;;;;;890699;157;27491;-75
2022/04/14 04:37:55;;;;;;;10.33;9.33;;;15.50;70.00;;;;;;897694;157;27437;-75
2022/04/14 04:40:21;;;;;;;10.23;9.27;;;15.50;70.30;;;;;;895806;157;27463;-75
2022/04/14 04:42:48;;;;;;;11.40;9.37;;;15.50;70.10;;;;;;887298;157;27484;-75
2022/04/14 04:45:14;;;;;;;9.97;8.97;;;15.50;70.40;;;;;;895051;160;27387;-75
2022/04/14 04:47:41;;;;;;;10.87;9.57;;;15.50;70.50;;;;;;891520;160;27379;-75
2022/04/14 04:50:08;;;;;;;10.67;9.57;;;15.50;70.50;;;;;;890268;157;27344;-75
2022/04/14 04:52:34;;;;;;;11.20;9.83;;;15.50;70.80;;;;;;904978;157;27390;-75
2022/04/14 04:55:01;;;;;;;10.00;9.00;;;15.50;70.80;;;;;;892729;157;27936;-75
2022/04/14 04:57:27;;;;;;;11.10;9.97;;;15.50;71.10;;;;;;897881;160;27457;-75
2022/04/14 04:59:54;;;;;;;11.00;9.50;;;15.50;72.00;;;;;;905707;157;27329;-75
2022/04/14 05:02:21;;;;;;;11.03;9.80;;;15.60;71.50;;;;;;906250;156;27400;-75
2022/04/14 05:04:47;;;;;;;9.87;8.93;;;15.60;71.70;;;;;;904651;156;27418;-75
2022/04/14 05:07:14;;;;;;;10.93;9.83;;;15.70;71.80;;;;;;906729;156;27510;-75
2022/04/14 05:09:40;;;;;;;13.27;10.57;;;15.70;71.90;;;;;;904083;156;27359;-75
2022/04/14 05:12:07;;;;;;;12.03;10.00;;;15.80;71.90;;;;;;900947;156;27415;-75
2022/04/14 05:14:34;;;;;;;11.47;9.70;;;15.90;72.10;;;;;;902116;159;27400;-75
2022/04/14 05:17:00;;;;;;;11.33;10.23;;;15.90;72.30;;;;;;903961;158;27398;-75
2022/04/14 05:19:27;;;;;;;14.23;10.30;;;16.00;72.10;;;;;;903938;158;27397;-75
2022/04/14 05:21:53;;;;;;;11.73;10.20;;;16.10;72.30;;;;;;907008;156;27404;-75
2022/04/14 05:24:21;;;;;;;10.80;9.77;;;16.20;72.20;;;;;;902306;156;27506;-75
2022/04/14 05:26:46;;;;;;;11.27;10.17;;;16.20;72.20;;;;;;906298;156;27382;-74
2022/04/14 05:29:13;;;;;;;12.77;11.50;;;16.30;72.20;;;;;;900978;156;27527;-75
2022/04/14 05:31:40;;;;;;;11.93;10.70;;;16.40;72.10;;;;;;902325;156;27468;-75
2022/04/14 05:34:06;;;;;;;12.20;10.93;;;16.40;71.90;;;;;;899885;156;28271;-75
2022/04/14 05:36:33;;;;;;;11.60;10.40;;;16.50;71.90;;;;;;899026;156;27394;-75
2022/04/14 05:38:59;;;;;;;13.95;11.50;;;16.50;71.70;;;;;;903888;156;27378;-75
2022/04/14 05:41:26;;;;;;;11.33;10.13;;;16.60;71.80;;;;;;898637;158;27425;-75
2022/04/14 05:43:53;;;;;;;11.40;10.27;;;16.70;71.80;;;;;;903438;158;27933;-75
2022/04/14 05:46:19;;;;;;;12.73;10.33;;;16.70;71.70;;;;;;903919;156;27290;-75
2022/04/14 05:48:47;;;;;;;10.87;9.77;;;16.70;71.70;;;;;;906146;155;27480;-75
2022/04/14 05:51:12;;;;;;;13.35;11.30;;;16.80;71.70;;;;;;903589;156;27351;-75
2022/04/14 05:53:39;;;;;;;11.80;10.60;;;16.90;71.60;;;;;;905639;155;27563;-75
2022/04/14 05:56:06;;;;;;;12.30;11.03;;;16.90;71.60;;;;;;900461;156;27512;-75
2022/04/14 05:58:32;;;;;;;12.27;10.87;;;16.90;71.40;;;;;;905835;156;27433;-75
2022/04/14 06:00:59;;;;;;;13.30;11.93;;;17.00;71.40;;;;;;908646;156;27482;-75
2022/04/14 06:03:26;;;;;;;14.13;10.73;;;17.00;71.40;;;;;;899056;157;27961;-75
2022/04/14 06:05:52;;;;;;;13.78;11.33;;;17.10;71.40;;;;;;903615;157;27403;-75
2022/04/14 06:08:19;;;;;;;11.80;10.38;;;17.10;71.30;;;;;;894287;157;27325;-75
2022/04/14 06:10:45;;;;;;;12.20;10.68;;;17.10;71.30;;;;;;897434;160;27260;-75
2022/04/14 06:13:12;;;;;;;11.85;10.05;;;17.20;71.30;;;;;;892484;157;27549;-75
2022/04/14 06:15:38;;;;;;;12.63;11.33;;;17.20;71.20;;;;;;894374;157;27344;-75
2022/04/14 06:18:05;;;;;;;13.22;10.90;;;17.20;71.30;;;;;;890809;157;27404;-75
2022/04/14 06:20:32;;;;;;;13.72;11.53;;;17.20;71.20;;;;;;897196;157;27733;-75
2022/04/14 06:22:58;;;;;;;11.70;10.63;;;17.30;71.30;;;;;;897925;157;27398;-75
2022/04/14 06:25:25;;;;;;;13.53;10.98;;;17.40;71.30;;;;;;898260;158;27412;-75
2022/04/14 06:27:51;;;;;;;12.35;10.88;;;17.30;71.30;;;;;;901108;157;27498;-75
2022/04/14 06:30:18;;;;;;;15.93;11.22;;;17.40;71.40;;;;;;897452;157;27385;-75
2022/04/14 06:33:00;;;;;;;11.63;10.38;;;17.40;71.30;;;;;;889670;157;27468;-75
2022/04/14 06:35:26;;;;;;;12.90;11.00;;;17.50;70.50;;;;;;900900;157;27382;-75
2022/04/14 06:37:53;;;;;;;11.25;10.08;;;17.60;71.30;;;;;;900914;157;27268;-75
2022/04/14 06:40:21;;;;;;;11.85;10.68;;;17.60;71.30;;;;;;889041;160;27453;-75
2022/04/14 06:42:47;;;;;;;11.90;10.58;;;17.60;71.40;;;;;;889172;160;27781;-75
2022/04/14 06:45:13;;;;;;;12.98;10.95;;;17.70;71.30;;;;;;881839;163;27542;-75
2022/04/14 06:47:39;;;;;;;13.53;11.00;;;17.70;71.30;;;;;;881889;163;27364;-75
2022/04/14 06:50:06;;;;;;;11.10;10.00;;;17.80;71.20;;;;;;884781;160;27357;-75
2022/04/14 06:52:33;;;;;;;11.40;9.98;;;17.90;71.20;;;;;;893131;157;27927;-75
2022/04/14 06:54:59;;;;;;;11.63;10.43;;;18.00;71.00;;;;;;898563;157;27427;-75
2022/04/14 06:57:26;;;;;;;11.93;10.80;;;18.00;71.00;;;;;;891636;157;27351;-74
2022/04/14 06:59:52;;;;;;;11.35;10.13;;;18.10;70.80;;;;;;896508;157;27440;-75
2022/04/14 07:02:19;;;;;;;13.22;10.23;;;18.20;70.80;;;;;;882476;160;27768;-75
2022/04/14 07:04:45;;;;;;;11.70;9.83;;;18.30;70.70;;;;;;901267;156;27501;-75
2022/04/14 07:07:12;;;;;;;12.13;9.93;;;18.30;70.70;;;;;;905751;156;27374;-75
2022/04/14 07:09:39;;;;;;;12.13;9.85;;;18.40;70.60;;;;;;903989;159;27330;-75
2022/04/14 07:12:06;;;;;;;12.95;10.28;;;18.50;70.60;;;;;;894121;159;27497;-75
2022/04/14 07:14:32;;;;;;;11.50;10.40;;;18.60;70.40;;;;;;903634;156;27392;-75
2022/04/14 07:16:58;;;;;;;11.15;10.05;;;18.70;70.30;;;;;;903062;156;27410;-75
2022/04/14 07:19:25;;;;;;;11.57;10.38;;;18.80;70.00;;;;;;903974;158;27386;-75
2022/04/14 07:21:52;;;;;;;11.68;10.40;;;18.90;70.00;;;;;;903849;159;27436;-75
2022/04/14 07:24:18;;;;;;;11.03;9.65;;;19.00;69.80;;;;;;903931;158;27408;-75
2022/04/14 07:26:45;;;;;;;14.10;10.40;;;19.00;69.50;;;;;;901884;159;27414;-75
2022/04/14 07:29:11;;;;;;;11.93;10.32;;;19.10;69.50;;;;;;897975;159;27505;-75
2022/04/14 07:31:39;;;;;;;11.28;10.13;;;19.20;69.40;;;;;;902953;156;27407;-75
2022/04/14 07:34:05;;;;;;;13.05;9.85;;;19.30;69.40;;;;;;896315;159;27593;-75
2022/04/14 07:36:31;;;;;;;11.12;10.03;;;19.40;69.20;;;;;;900942;156;27234;-75
2022/04/14 07:38:58;;;;;;;11.45;10.38;;;19.50;69.20;;;;;;899168;159;27253;-75
2022/04/14 07:41:26;;;;;;;11.45;10.25;;;19.60;69.10;;;;;;901554;156;27393;-75
2022/04/14 07:43:51;;;;;;;9.85;8.85;;;19.70;68.90;;;;;;903513;159;27397;-75
2022/04/14 07:48:41;;;;;;;10.55;8.70;;;19.80;68.80;;;;;;975032;145;37245;-75
2022/04/14 07:51:07;;;;;;;11.22;10.05;;;20.10;68.60;;;;;;954451;149;27370;-75
2022/04/14 07:53:34;;;;;;;12.37;9.90;;;20.30;68.20;;;;;;950601;148;27275;-75
2022/04/14 07:56:00;;;;;;;11.43;10.23;;;20.40;68.00;;;;;;948927;149;27391;-75
2022/04/14 07:58:27;;;;;;;10.55;9.55;;;20.60;67.80;;;;;;960256;149;27290;-75
2022/04/14 08:00:55;;;;;;;10.60;9.65;;;20.80;67.80;;;;;;960371;147;27295;-75
2022/04/14 08:03:20;;;;;;;9.95;8.83;;;21.00;67.50;;;;;;952224;148;27316;-75
2022/04/14 08:05:47;;;;;;;9.78;8.83;;;21.20;67.30;;;;;;941659;151;27302;-74
2022/04/14 08:08:13;;;;;;;10.93;9.08;;;21.30;67.80;;;;;;947672;151;27398;-75
2022/04/14 08:10:40;;;;;;;9.90;8.98;;;21.60;66.00;;;;;;945463;148;27299;-75
2022/04/14 08:13:06;;;;;;;10.00;9.00;;;21.80;66.40;;;;;;949141;148;27308;-75
2022/04/14 08:15:33;;;;;;;9.03;8.13;;;22.10;65.90;;;;;;941611;151;27326;-75
2022/04/14 08:18:00;;;;;;;9.38;8.48;;;22.30;66.00;;;;;;943670;151;27285;-75
2022/04/14 08:20:26;;;;;;;10.55;9.00;;;22.60;65.60;;;;;;946226;151;27307;-75
2022/04/14 08:22:54;;;;;;;9.65;8.68;;;23.00;65.30;;;;;;948709;150;27319;-74
2022/04/14 08:25:20;;;;;;;9.43;8.50;;;23.30;64.40;;;;;;939779;151;27312;-75
2022/04/14 08:27:47;;;;;;;9.05;8.15;;;23.60;63.60;;;;;;942419;151;27414;-75
2022/04/14 08:30:13;;;;;;;7.87;7.08;;;23.90;62.30;;;;;;935647;151;27405;-75
2022/04/14 08:32:39;;;;;;;10.13;8.15;;;24.10;61.60;;;;;;934905;151;27320;-75
2022/04/14 08:35:06;;;;;;;8.10;7.10;;;24.30;60.60;;;;;;943260;151;27285;-74
2022/04/14 08:37:32;;;;;;;7.75;6.95;;;24.40;59.90;;;;;;948538;151;28059;-75
2022/04/14 08:39:59;;;;;;;7.67;6.95;;;24.40;59.40;;;;;;941200;150;27453;-74
2022/04/14 08:42:26;;;;;;;7.45;6.70;;;24.50;59.00;;;;;;946426;150;27333;-75
2022/04/14 08:44:52;;;;;;;7.28;6.58;;;24.50;58.80;;;;;;934537;151;27347;-75
2022/04/14 08:47:19;;;;;;;8.43;6.95;;;24.50;58.30;;;;;;942695;151;27445;-75
2022/04/14 08:49:45;;;;;;;7.28;6.67;;;24.50;58.60;;;;;;940204;151;27266;-75
2022/04/14 08:52:15;;;;;;;7.00;6.35;;;24.60;58.30;;;;;;941575;151;27234;-75
2022/04/14 08:54:38;;;;;;;7.03;6.37;;;24.60;57.90;;;;;;934941;151;27375;-75
2022/04/14 08:57:06;;;;;;;9.35;7.20;;;24.60;57.60;;;;;;942361;152;27318;-74
2022/04/14 08:59:32;;;;;;;7.33;6.53;;;24.50;57.20;;;;;;933779;151;27269;-75
2022/04/14 09:01:58;;;;;;;7.45;6.67;;;24.40;56.90;;;;;;941269;150;27336;-75
2022/04/14 09:04:25;;;;;;;6.78;6.08;;;24.30;56.70;;;;;;936673;152;27347;-75
2022/04/14 09:06:51;;;;;;;7.45;6.42;;;24.10;56.90;;;;;;937578;152;27335;-74
2022/04/14 09:09:18;;;;;;;7.37;6.28;;;24.00;56.90;;;;;;940455;152;27230;-75
2022/04/14 09:11:45;;;;;;;8.38;6.58;;;23.80;57.00;;;;;;933625;150;27418;-75
2022/04/14 09:14:15;;;;;;;6.75;6.15;;;23.70;57.10;;;;;;933570;152;27390;-75
2022/04/14 09:16:41;;;;;;;7.80;6.35;;;23.60;57.10;;;;;;926249;155;27309;-75
2022/04/14 09:19:07;;;;;;;7.40;6.33;;;23.40;57.20;;;;;;936187;152;27350;-74
2022/04/14 09:24:09;;;;;;;6.87;6.28;;;23.30;57.30;;;;;;980180;144;37167;-75
2022/04/14 09:26:36;;;;;;;7.62;6.80;;;23.00;57.50;;;;;;961721;148;27773;-75
2022/04/14 09:29:10;;;;;;;7.10;6.35;;;22.90;57.70;;;;;;963228;149;27302;-75
2022/04/14 09:31:46;;;;;;;8.70;7.22;;;22.80;57.90;;;;;;953802;149;28055;-74
2022/04/14 09:34:15;;;;;;;8.85;7.30;;;22.70;58.00;;;;;;949675;149;27442;-74
2022/04/14 09:36:39;;;;;;;7.65;6.95;;;22.60;58.00;;;;;;961137;149;27658;-75
2022/04/14 09:39:06;;;;;;;7.75;7.05;;;22.60;58.20;;;;;;949132;149;27415;-75
2022/04/14 09:41:41;;;;;;;7.22;6.50;;;22.50;58.40;;;;;;960153;149;27304;-74
2022/04/14 09:44:08;;;;;;;8.08;6.22;;;22.40;58.60;;;;;;956934;148;27270;-75
2022/04/14 09:46:34;;;;;;;8.53;7.20;;;22.40;58.70;;;;;;955777;149;27671;-74
2022/04/14 09:49:09;;;;;;;8.00;7.20;;;22.40;58.90;;;;;;953333;149;27315;-75
2022/04/14 09:51:39;;;;;;;7.87;7.15;;;22.40;58.90;;;;;;954819;149;27339;-75
2022/04/14 09:54:17;;;;;;;7.33;6.58;;;22.40;58.90;;;;;;955616;149;27298;-75
2022/04/14 09:56:51;;;;;;;7.75;6.95;;;22.30;58.90;;;;;;951947;146;27421;-75
2022/04/14 09:59:16;;;;;;;7.80;7.05;;;22.30;59.00;;;;;;959067;148;27300;-74
2022/04/14 10:01:43;;;;;;;8.25;7.35;;;22.30;59.00;;;;;;950032;149;27343;-74
2022/04/14 10:04:13;;;;;;;8.40;7.10;;;22.30;59.20;;;;;;952902;148;27430;-74
2022/04/14 10:06:36;;;;;;;10.78;7.78;;;22.30;59.10;;;;;;940942;148;27328;-75
2022/04/14 10:09:03;;;;;;;8.10;7.30;;;22.40;59.10;;;;;;946274;148;27311;-75
2022/04/14 10:11:37;;;;;;;8.25;6.67;;;22.40;59.10;;;;;;946091;151;27327;-74
2022/04/14 10:14:13;;;;;;;7.10;6.50;;;22.40;59.30;;;;;;939856;151;28135;-75
2022/04/14 10:16:40;;;;;;;7.15;6.55;;;22.50;59.80;;;;;;944060;151;27302;-75
2022/04/14 10:19:06;;;;;;;7.42;6.67;;;22.70;59.80;;;;;;947391;149;27396;-75
2022/04/14 10:21:33;;;;;;;7.28;6.53;;;22.80;59.70;;;;;;934945;151;27281;-74
2022/04/14 10:23:59;;;;;;;8.20;7.35;;;23.00;59.60;;;;;;943945;151;27459;-75
2022/04/14 10:26:26;;;;;;;6.90;6.40;;;23.20;59.10;;;;;;928292;150;27333;-75
2022/04/14 10:28:53;;;;;;;11.73;6.95;;;23.30;58.80;;;;;;941023;150;27346;-75
2022/04/14 10:31:19;;;;;;;6.83;6.15;;;23.50;58.70;;;;;;941404;149;27335;-75
2022/04/14 10:33:46;;;;;;;7.37;6.67;;;23.60;58.50;;;;;;942054;152;27409;-75
2022/04/14 10:36:12;;;;;;;7.05;6.40;;;23.70;58.40;;;;;;944139;149;27309;-75
2022/04/14 10:38:40;;;;;;;8.50;6.58;;;23.80;58.20;;;;;;926367;154;27442;-74
2022/04/14 10:41:17;;;;;;;6.95;6.20;;;23.90;58.10;;;;;;928280;152;27358;-75
2022/04/14 10:43:47;;;;;;;6.20;5.60;;;24.00;58.00;;;;;;921218;152;27598;-75
2022/04/14 10:46:17;;;;;;;6.25;5.60;;;24.10;57.80;;;;;;938609;152;27313;-75
2022/04/14 10:48:43;;;;;;;6.35;5.22;;;24.20;57.80;;;;;;934311;151;27300;-75
2022/04/14 10:51:24;;;;;;;5.60;5.10;;;24.40;57.60;;;;;;936857;151;27411;-75
2022/04/14 10:54:05;;;;;;;4.40;4.00;;;24.50;57.60;;;;;;939117;149;27397;-75
2022/04/14 10:56:35;;;;;;;4.67;4.03;;;24.70;56.20;;;;;;937320;149;27381;-75
2022/04/14 10:59:02;;;;;;;4.75;4.25;;;24.70;55.70;;;;;;948697;149;27412;-75
2022/04/14 11:01:53;;;;;;;5.62;3.77;;;24.80;55.60;;;;;;928514;152;27712;-75
2022/04/14 11:04:25;;;;;;;4.42;3.40;;;24.80;55.40;;;;;;927987;151;27521;-75
2022/04/14 11:06:51;;;;;;;3.75;2.85;;;24.90;55.20;;;;;;941709;152;27440;-74
2022/04/14 11:09:42;;;;;;;3.33;3.00;;;24.90;55.10;;;;;;935114;151;27246;-75
2022/04/14 11:12:24;;;;;;;5.90;3.47;;;24.90;55.10;;;;;;943821;152;27424;-75
2022/04/14 11:14:59;;;;;;;3.40;2.70;;;24.90;54.60;;;;;;933719;149;27297;-74
2022/04/14 11:17:38;;;;;;;4.62;2.90;;;24.90;54.50;;;;;;939496;149;27339;-75
2022/04/14 11:20:25;;;;;;;3.60;3.10;;;24.90;54.20;;;;;;927047;152;27325;-75
2022/04/14 11:23:13;;;;;;;2.83;2.62;;;24.90;54.00;;;;;;934155;152;27361;-74
2022/04/14 11:25:45;;;;;;;2.30;2.10;;;24.80;54.00;;;;;;942344;152;27716;-74
2022/04/14 11:28:20;;;;;;;3.08;2.52;;;24.80;54.00;;;;;;942081;152;27326;-74
2022/04/14 11:30:47;;;;;;;2.75;2.55;;;24.70;53.70;;;;;;933978;153;27681;-75
2022/04/14 11:33:22;;;;;;;3.75;2.58;;;24.60;54.00;;;;;;938860;148;27785;-75
2022/04/14 11:35:49;;;;;;;3.02;2.50;;;24.50;54.30;;;;;;944102;148;27314;-75
2022/04/14 11:38:50;;;;;;;2.60;2.40;;;24.40;54.60;;;;;;942413;152;27379;-75
2022/04/14 11:41:34;;;;;;;3.10;2.27;;;24.40;54.80;;;;;;929423;149;27447;-75
2022/04/14 11:44:00;;;;;;;2.85;2.52;;;24.40;55.10;;;;;;939707;149;27336;-75
2022/04/14 11:46:27;;;;;;;3.95;2.30;;;24.30;55.20;;;;;;946247;149;27293;-75
2022/04/14 11:48:54;;;;;;;3.50;2.72;;;24.30;55.00;;;;;;942234;150;27302;-75
2022/04/14 11:51:20;;;;;;;3.02;2.65;;;24.30;55.20;;;;;;939669;151;27459;-75
2022/04/14 11:53:47;;;;;;;2.90;2.17;;;24.40;55.20;;;;;;946177;149;27307;-74
2022/04/14 11:56:17;;;;;;;2.58;2.33;;;24.40;55.20;;;;;;945517;149;27322;-75
2022/04/14 11:58:43;;;;;;;3.62;1.98;;;24.50;55.30;;;;;;938836;149;27443;-75
2022/04/14 12:01:09;;;;;;;2.87;2.55;;;24.50;55.10;;;;;;936153;149;27291;-76
2022/04/14 12:03:36;;;;;;;2.25;2.05;;;24.60;54.90;;;;;;940439;149;27495;-75
2022/04/14 12:06:06;;;;;;;2.47;2.27;;;24.70;55.00;;;;;;944103;149;27344;-75
2022/04/14 12:08:35;;;;;;;2.55;2.02;;;24.70;54.80;;;;;;930922;152;27347;-75
2022/04/14 12:11:11;;;;;;;2.25;1.98;;;24.80;54.70;;;;;;943030;149;27307;-75
2022/04/14 12:13:37;;;;;;;1.90;1.72;;;24.80;54.60;;;;;;943334;149;27437;-75
2022/04/14 12:16:03;;;;;;;2.15;1.90;;;24.90;54.50;;;;;;948805;149;27317;-75
2022/04/14 12:18:30;;;;;;;1.95;1.75;;;24.90;54.40;;;;;;959928;149;27245;-75
2022/04/14 12:20:57;;;;;;;2.25;1.80;;;25.00;54.40;;;;;;941382;149;27444;-75
2022/04/14 12:23:23;;;;;;;2.10;2.00;;;25.00;54.20;;;;;;935281;152;27443;-75
2022/04/14 12:25:51;;;;;;;3.15;1.77;;;25.10;54.00;;;;;;925203;154;27400;-75
2022/04/14 12:28:16;;;;;;;2.22;1.45;;;25.10;54.00;;;;;;925257;154;27258;-75
2022/04/14 12:30:43;;;;;;;1.75;1.65;;;25.10;53.90;;;;;;925826;154;27428;-75
2022/04/14 12:33:09;;;;;;;1.87;1.65;;;25.10;53.00;;;;;;939739;151;27429;-75
2022/04/14 12:35:39;;;;;;;2.58;1.80;;;25.10;53.60;;;;;;926599;155;28052;-74
2022/04/14 12:38:29;;;;;;;2.22;1.65;;;25.00;53.30;;;;;;924545;155;27442;-75
2022/04/14 12:40:56;;;;;;;1.67;1.57;;;24.90;53.30;;;;;;923278;153;27449;-75
2022/04/14 12:43:22;;;;;;;1.50;1.40;;;24.80;53.30;;;;;;927918;155;27348;-75
2022/04/14 12:45:49;;;;;;;1.85;1.60;;;24.70;53.40;;;;;;930301;153;27284;-74
2022/04/14 12:48:27;;;;;;;1.60;1.50;;;24.60;53.40;;;;;;933509;152;27302;-74